sensor_id;sensor_type;location;lat;lon;timestamp;P1;durP1;ratioP1;P2;durP2;ratioP2
40945;SDS011;55635;50.264;11.918;2023-06-26T00:02:30;7.28;;;6.53;;
40945;SDS011;55635;50.264;11.918;2023-06-26T00:05:12;7.68;;;6.43;;
40945;SDS011;55635;50.264;11.918;2023-06-26T00:07:54;7.00;;;6.30;;
40945;SDS011;55635;50.264;11.918;2023-06-26T00:10:34;6.53;;;5.93;;
40945;SDS011;55635;50.264;11.918;2023-06-26T00:13:15;6.70;;;6.00;;
40945;SDS011;55635;50.264;11.918;2023-06-26T00:15:56;11.63;;;6.28;;
40945;SDS011;55635;50.264;11.918;2023-06-26T00:18:37;6.38;;;5.72;;
40945;SDS011;55635;50.264;11.918;2023-06-26T00:21:18;8.60;;;6.68;;
40945;SDS011;55635;50.264;11.918;2023-06-26T00:24:00;7.15;;;6.55;;
40945;SDS011;55635;50.264;11.918;2023-06-26T00:26:41;6.05;;;5.50;;
40945;SDS011;55635;50.264;11.918;2023-06-26T00:29:22;8.13;;;6.20;;
40945;SDS011;55635;50.264;11.918;2023-06-26T00:32:03;7.07;;;6.38;;
40945;SDS011;55635;50.264;11.918;2023-06-26T00:34:44;8.20;;;6.63;;
40945;SDS011;55635;50.264;11.918;2023-06-26T00:37:26;9.07;;;6.72;;
40945;SDS011;55635;50.264;11.918;2023-06-26T00:40:07;7.47;;;6.72;;
40945;SDS011;55635;50.264;11.918;2023-06-26T00:42:49;7.35;;;6.63;;
40945;SDS011;55635;50.264;11.918;2023-06-26T00:45:30;7.28;;;6.55;;
40945;SDS011;55635;50.264;11.918;2023-06-26T00:48:11;8.63;;;7.72;;
40945;SDS011;55635;50.264;11.918;2023-06-26T00:50:52;9.75;;;7.00;;
40945;SDS011;55635;50.264;11.918;2023-06-26T00:53:33;7.18;;;6.38;;
40945;SDS011;55635;50.264;11.918;2023-06-26T00:56:15;6.47;;;5.88;;
40945;SDS011;55635;50.264;11.918;2023-06-26T00:58:57;7.78;;;6.68;;
40945;SDS011;55635;50.264;11.918;2023-06-26T01:01:40;8.85;;;6.53;;
40945;SDS011;55635;50.264;11.918;2023-06-26T01:04:24;8.50;;;7.13;;
40945;SDS011;55635;50.264;11.918;2023-06-26T01:07:07;9.98;;;6.68;;
40945;SDS011;55635;50.264;11.918;2023-06-26T01:09:48;8.05;;;6.85;;
40945;SDS011;55635;50.264;11.918;2023-06-26T01:12:30;9.73;;;7.35;;
40945;SDS011;55635;50.264;11.918;2023-06-26T01:15:13;9.82;;;7.15;;
40945;SDS011;55635;50.264;11.918;2023-06-26T01:17:54;9.82;;;7.20;;
40945;SDS011;55635;50.264;11.918;2023-06-26T01:20:41;8.90;;;7.28;;
40945;SDS011;55635;50.264;11.918;2023-06-26T01:24:09;9.65;;;7.28;;
40945;SDS011;55635;50.264;11.918;2023-06-26T01:26:40;8.45;;;7.50;;
40945;SDS011;55635;50.264;11.918;2023-06-26T01:29:28;8.52;;;7.63;;
40945;SDS011;55635;50.264;11.918;2023-06-26T01:32:13;8.35;;;7.47;;
40945;SDS011;55635;50.264;11.918;2023-06-26T01:34:54;8.00;;;7.03;;
40945;SDS011;55635;50.264;11.918;2023-06-26T01:37:36;12.20;;;7.40;;
40945;SDS011;55635;50.264;11.918;2023-06-26T01:40:17;10.43;;;7.57;;
40945;SDS011;55635;50.264;11.918;2023-06-26T01:42:59;10.63;;;8.73;;
40945;SDS011;55635;50.264;11.918;2023-06-26T01:45:40;9.43;;;8.40;;
40945;SDS011;55635;50.264;11.918;2023-06-26T01:48:23;11.48;;;8.68;;
40945;SDS011;55635;50.264;11.918;2023-06-26T01:51:10;8.63;;;7.82;;
40945;SDS011;55635;50.264;11.918;2023-06-26T01:53:54;10.13;;;8.07;;
40945;SDS011;55635;50.264;11.918;2023-06-26T01:56:37;11.13;;;8.93;;
40945;SDS011;55635;50.264;11.918;2023-06-26T01:59:19;8.43;;;6.88;;
40945;SDS011;55635;50.264;11.918;2023-06-26T02:02:02;10.02;;;7.97;;
40945;SDS011;55635;50.264;11.918;2023-06-26T02:04:46;9.82;;;8.82;;
40945;SDS011;55635;50.264;11.918;2023-06-26T02:07:28;9.25;;;8.23;;
40945;SDS011;55635;50.264;11.918;2023-06-26T02:10:09;10.20;;;7.75;;
40945;SDS011;55635;50.264;11.918;2023-06-26T02:12:50;8.10;;;7.30;;
40945;SDS011;55635;50.264;11.918;2023-06-26T02:15:31;9.88;;;8.88;;
40945;SDS011;55635;50.264;11.918;2023-06-26T02:18:14;9.35;;;8.35;;
40945;SDS011;55635;50.264;11.918;2023-06-26T02:20:55;9.18;;;8.27;;
40945;SDS011;55635;50.264;11.918;2023-06-26T02:23:35;14.18;;;8.48;;
40945;SDS011;55635;50.264;11.918;2023-06-26T02:26:19;9.40;;;8.45;;
40945;SDS011;55635;50.264;11.918;2023-06-26T02:29:00;8.93;;;8.02;;
40945;SDS011;55635;50.264;11.918;2023-06-26T02:31:41;9.13;;;8.15;;
40945;SDS011;55635;50.264;11.918;2023-06-26T02:34:22;9.05;;;8.10;;
40945;SDS011;55635;50.264;11.918;2023-06-26T02:37:04;10.93;;;8.43;;
40945;SDS011;55635;50.264;11.918;2023-06-26T02:39:47;12.65;;;8.48;;
40945;SDS011;55635;50.264;11.918;2023-06-26T02:42:28;9.27;;;7.88;;
40945;SDS011;55635;50.264;11.918;2023-06-26T02:45:11;10.05;;;8.20;;
40945;SDS011;55635;50.264;11.918;2023-06-26T02:47:52;9.15;;;7.45;;
40945;SDS011;55635;50.264;11.918;2023-06-26T02:50:33;9.07;;;8.18;;
40945;SDS011;55635;50.264;11.918;2023-06-26T02:53:19;8.32;;;7.28;;
40945;SDS011;55635;50.264;11.918;2023-06-26T02:56:01;11.80;;;8.85;;
40945;SDS011;55635;50.264;11.918;2023-06-26T02:58:42;10.07;;;7.95;;
40945;SDS011;55635;50.264;11.918;2023-06-26T03:01:24;10.02;;;8.13;;
40945;SDS011;55635;50.264;11.918;2023-06-26T03:04:05;8.52;;;7.47;;
40945;SDS011;55635;50.264;11.918;2023-06-26T03:06:47;10.27;;;8.75;;
40945;SDS011;55635;50.264;11.918;2023-06-26T03:09:29;9.93;;;8.50;;
40945;SDS011;55635;50.264;11.918;2023-06-26T03:12:10;10.20;;;7.82;;
40945;SDS011;55635;50.264;11.918;2023-06-26T03:14:51;11.20;;;8.38;;
40945;SDS011;55635;50.264;11.918;2023-06-26T03:17:31;11.75;;;8.65;;
40945;SDS011;55635;50.264;11.918;2023-06-26T03:20:17;8.52;;;7.57;;
40945;SDS011;55635;50.264;11.918;2023-06-26T03:23:09;10.57;;;8.35;;
40945;SDS011;55635;50.264;11.918;2023-06-26T03:25:51;11.25;;;9.07;;
40945;SDS011;55635;50.264;11.918;2023-06-26T03:28:39;11.57;;;8.88;;
40945;SDS011;55635;50.264;11.918;2023-06-26T03:31:22;11.52;;;9.00;;
40945;SDS011;55635;50.264;11.918;2023-06-26T03:34:04;11.77;;;9.18;;
40945;SDS011;55635;50.264;11.918;2023-06-26T03:36:46;13.32;;;9.50;;
40945;SDS011;55635;50.264;11.918;2023-06-26T03:39:27;10.95;;;8.85;;
40945;SDS011;55635;50.264;11.918;2023-06-26T03:42:08;10.38;;;8.32;;
40945;SDS011;55635;50.264;11.918;2023-06-26T03:44:49;11.02;;;8.27;;
40945;SDS011;55635;50.264;11.918;2023-06-26T03:47:32;10.70;;;7.60;;
40945;SDS011;55635;50.264;11.918;2023-06-26T03:50:14;9.65;;;8.65;;
40945;SDS011;55635;50.264;11.918;2023-06-26T03:52:58;10.93;;;8.68;;
40945;SDS011;55635;50.264;11.918;2023-06-26T03:55:39;9.73;;;8.45;;
40945;SDS011;55635;50.264;11.918;2023-06-26T03:58:21;10.25;;;9.13;;
40945;SDS011;55635;50.264;11.918;2023-06-26T04:01:03;10.93;;;9.82;;
40945;SDS011;55635;50.264;11.918;2023-06-26T04:03:44;11.60;;;10.40;;
40945;SDS011;55635;50.264;11.918;2023-06-26T04:06:25;14.43;;;10.50;;
40945;SDS011;55635;50.264;11.918;2023-06-26T04:09:07;12.48;;;10.57;;
40945;SDS011;55635;50.264;11.918;2023-06-26T04:11:48;12.45;;;9.98;;
40945;SDS011;55635;50.264;11.918;2023-06-26T04:14:30;15.30;;;10.88;;
40945;SDS011;55635;50.264;11.918;2023-06-26T04:17:11;14.07;;;10.95;;
40945;SDS011;55635;50.264;11.918;2023-06-26T04:19:52;12.48;;;10.38;;
40945;SDS011;55635;50.264;11.918;2023-06-26T04:22:33;12.95;;;9.90;;
40945;SDS011;55635;50.264;11.918;2023-06-26T04:25:14;12.23;;;10.05;;
40945;SDS011;55635;50.264;11.918;2023-06-26T04:27:55;10.43;;;9.30;;
40945;SDS011;55635;50.264;11.918;2023-06-26T04:30:36;12.02;;;9.52;;
40945;SDS011;55635;50.264;11.918;2023-06-26T04:33:18;11.80;;;10.13;;
40945;SDS011;55635;50.264;11.918;2023-06-26T04:35:59;13.98;;;9.63;;
40945;SDS011;55635;50.264;11.918;2023-06-26T04:38:43;14.95;;;10.38;;
40945;SDS011;55635;50.264;11.918;2023-06-26T04:41:24;12.75;;;10.02;;
40945;SDS011;55635;50.264;11.918;2023-06-26T04:44:05;12.70;;;10.50;;
40945;SDS011;55635;50.264;11.918;2023-06-26T04:46:46;11.77;;;9.85;;
40945;SDS011;55635;50.264;11.918;2023-06-26T04:49:27;10.48;;;9.45;;
40945;SDS011;55635;50.264;11.918;2023-06-26T04:52:08;17.88;;;10.18;;
40945;SDS011;55635;50.264;11.918;2023-06-26T04:54:49;13.40;;;10.52;;
40945;SDS011;55635;50.264;11.918;2023-06-26T04:57:30;12.13;;;10.05;;
40945;SDS011;55635;50.264;11.918;2023-06-26T05:00:11;11.60;;;10.07;;
40945;SDS011;55635;50.264;11.918;2023-06-26T05:02:54;12.18;;;9.10;;
40945;SDS011;55635;50.264;11.918;2023-06-26T05:05:40;10.63;;;9.13;;
40945;SDS011;55635;50.264;11.918;2023-06-26T05:08:22;12.32;;;9.68;;
40945;SDS011;55635;50.264;11.918;2023-06-26T05:11:06;12.70;;;10.63;;
40945;SDS011;55635;50.264;11.918;2023-06-26T05:13:47;13.55;;;10.30;;
40945;SDS011;55635;50.264;11.918;2023-06-26T05:16:28;10.75;;;9.65;;
40945;SDS011;55635;50.264;11.918;2023-06-26T05:19:08;10.18;;;9.13;;
40945;SDS011;55635;50.264;11.918;2023-06-26T05:21:49;9.85;;;8.95;;
40945;SDS011;55635;50.264;11.918;2023-06-26T05:24:32;11.27;;;9.60;;
40945;SDS011;55635;50.264;11.918;2023-06-26T05:27:17;13.48;;;9.20;;
40945;SDS011;55635;50.264;11.918;2023-06-26T05:30:04;9.77;;;8.77;;
40945;SDS011;55635;50.264;11.918;2023-06-26T05:32:47;9.68;;;8.68;;
40945;SDS011;55635;50.264;11.918;2023-06-26T05:35:29;9.80;;;8.80;;
40945;SDS011;55635;50.264;11.918;2023-06-26T05:38:11;12.27;;;9.27;;
40945;SDS011;55635;50.264;11.918;2023-06-26T05:40:53;10.90;;;8.85;;
40945;SDS011;55635;50.264;11.918;2023-06-26T05:43:35;9.85;;;8.88;;
40945;SDS011;55635;50.264;11.918;2023-06-26T05:46:16;11.10;;;9.02;;
40945;SDS011;55635;50.264;11.918;2023-06-26T05:49:00;10.82;;;8.55;;
40945;SDS011;55635;50.264;11.918;2023-06-26T05:51:42;10.05;;;8.43;;
40945;SDS011;55635;50.264;11.918;2023-06-26T05:54:23;9.32;;;8.43;;
40945;SDS011;55635;50.264;11.918;2023-06-26T05:57:05;11.25;;;7.75;;
40945;SDS011;55635;50.264;11.918;2023-06-26T05:59:46;10.13;;;8.23;;
40945;SDS011;55635;50.264;11.918;2023-06-26T06:02:27;8.50;;;7.65;;
40945;SDS011;55635;50.264;11.918;2023-06-26T06:05:08;14.13;;;8.05;;
40945;SDS011;55635;50.264;11.918;2023-06-26T06:07:50;10.93;;;7.65;;
40945;SDS011;55635;50.264;11.918;2023-06-26T06:10:31;9.38;;;7.55;;
40945;SDS011;55635;50.264;11.918;2023-06-26T06:13:14;8.75;;;7.72;;
40945;SDS011;55635;50.264;11.918;2023-06-26T06:15:55;8.95;;;7.20;;
40945;SDS011;55635;50.264;11.918;2023-06-26T06:18:36;10.18;;;7.75;;
40945;SDS011;55635;50.264;11.918;2023-06-26T06:21:17;7.82;;;7.03;;
40945;SDS011;55635;50.264;11.918;2023-06-26T06:23:58;7.50;;;6.63;;
40945;SDS011;55635;50.264;11.918;2023-06-26T06:26:41;9.63;;;7.15;;
40945;SDS011;55635;50.264;11.918;2023-06-26T06:29:22;7.07;;;6.38;;
40945;SDS011;55635;50.264;11.918;2023-06-26T06:32:03;8.65;;;6.68;;
40945;SDS011;55635;50.264;11.918;2023-06-26T06:34:44;8.02;;;6.43;;
40945;SDS011;55635;50.264;11.918;2023-06-26T06:37:25;7.03;;;6.05;;
40945;SDS011;55635;50.264;11.918;2023-06-26T06:40:08;8.57;;;6.63;;
40945;SDS011;55635;50.264;11.918;2023-06-26T06:42:50;7.15;;;6.47;;
40945;SDS011;55635;50.264;11.918;2023-06-26T06:45:31;6.30;;;5.70;;
40945;SDS011;55635;50.264;11.918;2023-06-26T06:48:12;6.80;;;6.20;;
40945;SDS011;55635;50.264;11.918;2023-06-26T06:50:53;6.78;;;6.18;;
40945;SDS011;55635;50.264;11.918;2023-06-26T06:53:33;6.47;;;5.88;;
40945;SDS011;55635;50.264;11.918;2023-06-26T06:56:14;6.82;;;6.22;;
40945;SDS011;55635;50.264;11.918;2023-06-26T06:58:55;7.70;;;6.43;;
40945;SDS011;55635;50.264;11.918;2023-06-26T07:01:36;5.65;;;5.13;;
40945;SDS011;55635;50.264;11.918;2023-06-26T07:04:17;6.15;;;5.55;;
40945;SDS011;55635;50.264;11.918;2023-06-26T07:06:58;7.95;;;5.35;;
40945;SDS011;55635;50.264;11.918;2023-06-26T07:09:39;6.07;;;5.55;;
40945;SDS011;55635;50.264;11.918;2023-06-26T07:12:20;5.97;;;5.43;;
40945;SDS011;55635;50.264;11.918;2023-06-26T07:15:01;5.97;;;5.47;;
40945;SDS011;55635;50.264;11.918;2023-06-26T07:17:44;6.10;;;5.60;;
40945;SDS011;55635;50.264;11.918;2023-06-26T07:20:25;6.72;;;6.05;;
40945;SDS011;55635;50.264;11.918;2023-06-26T07:23:06;8.35;;;7.47;;
40945;SDS011;55635;50.264;11.918;2023-06-26T07:25:47;7.22;;;6.63;;
40945;SDS011;55635;50.264;11.918;2023-06-26T07:28:28;7.75;;;6.93;;
40945;SDS011;55635;50.264;11.918;2023-06-26T07:31:09;9.88;;;8.05;;
40945;SDS011;55635;50.264;11.918;2023-06-26T07:33:49;8.30;;;6.95;;
40945;SDS011;55635;50.264;11.918;2023-06-26T07:36:30;9.73;;;8.38;;
40945;SDS011;55635;50.264;11.918;2023-06-26T07:39:11;10.25;;;9.35;;
40945;SDS011;55635;50.264;11.918;2023-06-26T07:41:52;11.85;;;10.05;;
40945;SDS011;55635;50.264;11.918;2023-06-26T07:44:33;11.65;;;10.32;;
40945;SDS011;55635;50.264;11.918;2023-06-26T07:47:14;10.75;;;9.75;;
40945;SDS011;55635;50.264;11.918;2023-06-26T07:49:55;13.88;;;10.30;;
40945;SDS011;55635;50.264;11.918;2023-06-26T07:52:36;12.73;;;10.50;;
40945;SDS011;55635;50.264;11.918;2023-06-26T07:55:17;11.73;;;10.23;;
40945;SDS011;55635;50.264;11.918;2023-06-26T07:57:58;9.27;;;8.35;;
40945;SDS011;55635;50.264;11.918;2023-06-26T08:00:39;9.00;;;7.90;;
40945;SDS011;55635;50.264;11.918;2023-06-26T08:03:21;8.57;;;7.72;;
40945;SDS011;55635;50.264;11.918;2023-06-26T08:06:02;7.18;;;6.53;;
40945;SDS011;55635;50.264;11.918;2023-06-26T08:08:43;7.93;;;7.20;;
40945;SDS011;55635;50.264;11.918;2023-06-26T08:11:24;7.65;;;6.53;;
40945;SDS011;55635;50.264;11.918;2023-06-26T08:14:05;7.07;;;6.35;;
40945;SDS011;55635;50.264;11.918;2023-06-26T08:16:46;7.72;;;5.93;;
40945;SDS011;55635;50.264;11.918;2023-06-26T08:19:27;7.05;;;6.35;;
40945;SDS011;55635;50.264;11.918;2023-06-26T08:22:08;6.55;;;5.85;;
40945;SDS011;55635;50.264;11.918;2023-06-26T08:24:49;8.45;;;7.65;;
40945;SDS011;55635;50.264;11.918;2023-06-26T08:27:31;8.57;;;6.93;;
40945;SDS011;55635;50.264;11.918;2023-06-26T08:30:13;7.80;;;6.97;;
40945;SDS011;55635;50.264;11.918;2023-06-26T08:32:54;8.50;;;6.63;;
40945;SDS011;55635;50.264;11.918;2023-06-26T08:35:36;10.48;;;7.10;;
40945;SDS011;55635;50.264;11.918;2023-06-26T08:38:16;7.70;;;7.00;;
40945;SDS011;55635;50.264;11.918;2023-06-26T08:40:58;7.43;;;6.68;;
40945;SDS011;55635;50.264;11.918;2023-06-26T08:43:39;7.82;;;7.07;;
40945;SDS011;55635;50.264;11.918;2023-06-26T08:46:21;7.47;;;6.78;;
40945;SDS011;55635;50.264;11.918;2023-06-26T08:49:14;7.90;;;6.18;;
40945;SDS011;55635;50.264;11.918;2023-06-26T08:52:07;8.10;;;7.25;;
40945;SDS011;55635;50.264;11.918;2023-06-26T08:55:30;9.73;;;7.25;;
40945;SDS011;55635;50.264;11.918;2023-06-26T08:58:15;7.03;;;6.43;;
40945;SDS011;55635;50.264;11.918;2023-06-26T09:00:56;7.45;;;6.75;;
40945;SDS011;55635;50.264;11.918;2023-06-26T09:03:38;7.00;;;6.40;;
40945;SDS011;55635;50.264;11.918;2023-06-26T09:06:21;8.45;;;6.43;;
40945;SDS011;55635;50.264;11.918;2023-06-26T09:09:02;7.35;;;6.53;;
40945;SDS011;55635;50.264;11.918;2023-06-26T09:11:44;6.88;;;6.18;;
40945;SDS011;55635;50.264;11.918;2023-06-26T09:14:24;8.45;;;6.43;;
40945;SDS011;55635;50.264;11.918;2023-06-26T09:17:09;8.77;;;7.18;;
40945;SDS011;55635;50.264;11.918;2023-06-26T09:19:49;7.97;;;7.18;;
40945;SDS011;55635;50.264;11.918;2023-06-26T09:22:33;7.43;;;6.80;;
40945;SDS011;55635;50.264;11.918;2023-06-26T09:25:17;10.10;;;7.20;;
40945;SDS011;55635;50.264;11.918;2023-06-26T09:27:59;8.00;;;6.32;;
40945;SDS011;55635;50.264;11.918;2023-06-26T09:30:39;7.07;;;6.32;;
40945;SDS011;55635;50.264;11.918;2023-06-26T09:33:21;7.68;;;6.22;;
40945;SDS011;55635;50.264;11.918;2023-06-26T09:36:08;6.53;;;5.95;;
40945;SDS011;55635;50.264;11.918;2023-06-26T09:39:01;6.93;;;5.80;;
40945;SDS011;55635;50.264;11.918;2023-06-26T09:41:44;6.40;;;5.90;;
40945;SDS011;55635;50.264;11.918;2023-06-26T09:44:25;6.40;;;5.80;;
40945;SDS011;55635;50.264;11.918;2023-06-26T09:47:06;6.10;;;5.05;;
40945;SDS011;55635;50.264;11.918;2023-06-26T09:49:47;5.80;;;5.30;;
40945;SDS011;55635;50.264;11.918;2023-06-26T09:52:28;5.72;;;5.22;;
40945;SDS011;55635;50.264;11.918;2023-06-26T09:55:10;6.13;;;5.50;;
40945;SDS011;55635;50.264;11.918;2023-06-26T09:57:51;6.50;;;5.90;;
40945;SDS011;55635;50.264;11.918;2023-06-26T10:00:35;6.20;;;5.70;;
40945;SDS011;55635;50.264;11.918;2023-06-26T10:03:16;8.38;;;5.88;;
40945;SDS011;55635;50.264;11.918;2023-06-26T10:05:57;7.07;;;6.38;;
40945;SDS011;55635;50.264;11.918;2023-06-26T10:08:41;6.85;;;6.20;;
40945;SDS011;55635;50.264;11.918;2023-06-26T10:11:22;7.10;;;5.60;;
40945;SDS011;55635;50.264;11.918;2023-06-26T10:14:05;6.55;;;5.50;;
40945;SDS011;55635;50.264;11.918;2023-06-26T10:16:49;7.07;;;5.10;;
40945;SDS011;55635;50.264;11.918;2023-06-26T10:19:31;7.13;;;5.97;;
40945;SDS011;55635;50.264;11.918;2023-06-26T10:22:16;6.97;;;6.25;;
40945;SDS011;55635;50.264;11.918;2023-06-26T10:25:00;6.15;;;5.60;;
40945;SDS011;55635;50.264;11.918;2023-06-26T10:27:43;6.35;;;5.85;;
40945;SDS011;55635;50.264;11.918;2023-06-26T10:30:31;6.55;;;5.95;;
40945;SDS011;55635;50.264;11.918;2023-06-26T10:33:15;6.97;;;5.90;;
40945;SDS011;55635;50.264;11.918;2023-06-26T10:36:15;6.60;;;6.00;;
40945;SDS011;55635;50.264;11.918;2023-06-26T10:39:07;6.28;;;5.75;;
40945;SDS011;55635;50.264;11.918;2023-06-26T10:41:47;7.05;;;6.30;;
40945;SDS011;55635;50.264;11.918;2023-06-26T10:44:29;6.47;;;5.97;;
40945;SDS011;55635;50.264;11.918;2023-06-26T10:47:28;6.57;;;6.05;;
40945;SDS011;55635;50.264;11.918;2023-06-26T10:50:20;6.57;;;6.05;;
40945;SDS011;55635;50.264;11.918;2023-06-26T10:56:05;8.02;;;5.88;;
40945;SDS011;55635;50.264;11.918;2023-06-26T10:58:47;7.30;;;6.60;;
40945;SDS011;55635;50.264;11.918;2023-06-26T11:01:28;6.85;;;6.25;;
40945;SDS011;55635;50.264;11.918;2023-06-26T11:04:09;6.47;;;5.97;;
40945;SDS011;55635;50.264;11.918;2023-06-26T11:06:55;6.32;;;5.72;;
40945;SDS011;55635;50.264;11.918;2023-06-26T11:10:08;7.60;;;6.20;;
40945;SDS011;55635;50.264;11.918;2023-06-26T11:12:49;6.28;;;5.80;;
40945;SDS011;55635;50.264;11.918;2023-06-26T11:15:34;7.85;;;5.65;;
40945;SDS011;55635;50.264;11.918;2023-06-26T11:18:15;10.55;;;6.20;;
40945;SDS011;55635;50.264;11.918;2023-06-26T11:21:03;7.07;;;6.32;;
40945;SDS011;55635;50.264;11.918;2023-06-26T11:23:53;6.70;;;6.10;;
40945;SDS011;55635;50.264;11.918;2023-06-26T11:26:42;6.63;;;5.85;;
40945;SDS011;55635;50.264;11.918;2023-06-26T11:29:24;6.28;;;5.70;;
40945;SDS011;55635;50.264;11.918;2023-06-26T11:32:06;5.82;;;5.40;;
40945;SDS011;55635;50.264;11.918;2023-06-26T11:34:47;6.60;;;6.00;;
40945;SDS011;55635;50.264;11.918;2023-06-26T11:37:28;6.65;;;6.07;;
40945;SDS011;55635;50.264;11.918;2023-06-26T11:40:16;6.65;;;6.15;;
40945;SDS011;55635;50.264;11.918;2023-06-26T11:42:59;6.30;;;5.72;;
40945;SDS011;55635;50.264;11.918;2023-06-26T11:45:41;6.82;;;6.22;;
40945;SDS011;55635;50.264;11.918;2023-06-26T11:48:22;6.55;;;5.95;;
40945;SDS011;55635;50.264;11.918;2023-06-26T11:51:06;6.20;;;5.70;;
40945;SDS011;55635;50.264;11.918;2023-06-26T11:53:47;6.20;;;5.57;;
40945;SDS011;55635;50.264;11.918;2023-06-26T11:56:28;6.72;;;6.20;;
40945;SDS011;55635;50.264;11.918;2023-06-26T11:59:11;6.78;;;6.00;;
40945;SDS011;55635;50.264;11.918;2023-06-26T12:01:53;6.63;;;6.03;;
40945;SDS011;55635;50.264;11.918;2023-06-26T12:04:35;6.45;;;5.68;;
40945;SDS011;55635;50.264;11.918;2023-06-26T12:07:19;6.45;;;5.95;;
40945;SDS011;55635;50.264;11.918;2023-06-26T12:10:00;6.20;;;5.70;;
40945;SDS011;55635;50.264;11.918;2023-06-26T12:12:42;6.25;;;5.65;;
40945;SDS011;55635;50.264;11.918;2023-06-26T12:15:23;7.10;;;5.72;;
40945;SDS011;55635;50.264;11.918;2023-06-26T12:18:08;6.43;;;5.63;;
40945;SDS011;55635;50.264;11.918;2023-06-26T12:20:49;6.80;;;6.07;;
40945;SDS011;55635;50.264;11.918;2023-06-26T12:23:33;8.27;;;6.10;;
40945;SDS011;55635;50.264;11.918;2023-06-26T12:26:20;7.43;;;5.93;;
40945;SDS011;55635;50.264;11.918;2023-06-26T12:29:02;6.38;;;5.78;;
40945;SDS011;55635;50.264;11.918;2023-06-26T12:31:52;6.50;;;5.82;;
40945;SDS011;55635;50.264;11.918;2023-06-26T12:34:34;6.35;;;5.88;;
40945;SDS011;55635;50.264;11.918;2023-06-26T12:37:16;6.38;;;5.72;;
40945;SDS011;55635;50.264;11.918;2023-06-26T12:39:57;6.32;;;5.50;;
40945;SDS011;55635;50.264;11.918;2023-06-26T12:42:38;6.75;;;5.80;;
40945;SDS011;55635;50.264;11.918;2023-06-26T12:45:19;7.25;;;5.97;;
40945;SDS011;55635;50.264;11.918;2023-06-26T12:48:07;6.55;;;5.95;;
40945;SDS011;55635;50.264;11.918;2023-06-26T12:50:52;7.68;;;5.95;;
40945;SDS011;55635;50.264;11.918;2023-06-26T12:53:35;6.40;;;5.28;;
40945;SDS011;55635;50.264;11.918;2023-06-26T12:56:16;6.93;;;5.55;;
40945;SDS011;55635;50.264;11.918;2023-06-26T12:58:57;6.22;;;5.75;;
40945;SDS011;55635;50.264;11.918;2023-06-26T13:01:37;6.20;;;5.70;;
40945;SDS011;55635;50.264;11.918;2023-06-26T13:04:18;8.90;;;5.63;;
40945;SDS011;55635;50.264;11.918;2023-06-26T13:06:59;6.40;;;5.80;;
40945;SDS011;55635;50.264;11.918;2023-06-26T13:09:41;6.47;;;5.90;;
40945;SDS011;55635;50.264;11.918;2023-06-26T13:12:22;6.47;;;5.88;;
40945;SDS011;55635;50.264;11.918;2023-06-26T13:15:03;6.53;;;5.78;;
40945;SDS011;55635;50.264;11.918;2023-06-26T13:17:45;9.35;;;5.70;;
40945;SDS011;55635;50.264;11.918;2023-06-26T13:20:26;5.30;;;4.90;;
40945;SDS011;55635;50.264;11.918;2023-06-26T13:23:08;6.35;;;5.15;;
40945;SDS011;55635;50.264;11.918;2023-06-26T13:25:48;8.02;;;5.43;;
40945;SDS011;55635;50.264;11.918;2023-06-26T13:28:30;6.18;;;5.50;;
40945;SDS011;55635;50.264;11.918;2023-06-26T13:31:11;5.80;;;5.30;;
40945;SDS011;55635;50.264;11.918;2023-06-26T13:33:52;5.68;;;5.28;;
40945;SDS011;55635;50.264;11.918;2023-06-26T13:36:33;5.95;;;5.50;;
40945;SDS011;55635;50.264;11.918;2023-06-26T13:39:14;7.55;;;6.10;;
40945;SDS011;55635;50.264;11.918;2023-06-26T13:41:55;6.47;;;5.60;;
40945;SDS011;55635;50.264;11.918;2023-06-26T13:44:36;5.85;;;5.45;;
40945;SDS011;55635;50.264;11.918;2023-06-26T13:47:17;7.07;;;6.00;;
40945;SDS011;55635;50.264;11.918;2023-06-26T13:49:58;5.50;;;5.07;;
40945;SDS011;55635;50.264;11.918;2023-06-26T13:52:39;5.43;;;5.00;;
40945;SDS011;55635;50.264;11.918;2023-06-26T13:55:19;5.90;;;5.40;;
40945;SDS011;55635;50.264;11.918;2023-06-26T13:58:03;5.72;;;5.20;;
40945;SDS011;55635;50.264;11.918;2023-06-26T14:00:45;5.80;;;5.30;;
40945;SDS011;55635;50.264;11.918;2023-06-26T14:03:26;5.18;;;4.78;;
40945;SDS011;55635;50.264;11.918;2023-06-26T14:06:10;5.32;;;4.93;;
40945;SDS011;55635;50.264;11.918;2023-06-26T14:08:51;5.20;;;4.80;;
40945;SDS011;55635;50.264;11.918;2023-06-26T14:11:32;6.00;;;5.47;;
40945;SDS011;55635;50.264;11.918;2023-06-26T14:14:13;5.20;;;4.70;;
40945;SDS011;55635;50.264;11.918;2023-06-26T14:16:54;6.30;;;5.32;;
40945;SDS011;55635;50.264;11.918;2023-06-26T14:19:35;5.90;;;5.40;;
40945;SDS011;55635;50.264;11.918;2023-06-26T14:22:16;5.53;;;5.13;;
40945;SDS011;55635;50.264;11.918;2023-06-26T14:24:57;5.40;;;5.00;;
40945;SDS011;55635;50.264;11.918;2023-06-26T14:27:38;5.70;;;5.20;;
40945;SDS011;55635;50.264;11.918;2023-06-26T14:30:19;5.38;;;4.90;;
40945;SDS011;55635;50.264;11.918;2023-06-26T14:33:01;5.80;;;5.35;;
40945;SDS011;55635;50.264;11.918;2023-06-26T14:35:42;7.55;;;5.28;;
40945;SDS011;55635;50.264;11.918;2023-06-26T14:38:22;5.93;;;5.43;;
40945;SDS011;55635;50.264;11.918;2023-06-26T14:41:03;7.35;;;5.63;;
40945;SDS011;55635;50.264;11.918;2023-06-26T14:43:44;6.28;;;5.68;;
40945;SDS011;55635;50.264;11.918;2023-06-26T14:46:25;6.53;;;5.00;;
40945;SDS011;55635;50.264;11.918;2023-06-26T14:49:06;6.82;;;6.22;;
40945;SDS011;55635;50.264;11.918;2023-06-26T14:51:48;5.85;;;5.35;;
40945;SDS011;55635;50.264;11.918;2023-06-26T14:54:28;6.22;;;5.35;;
40945;SDS011;55635;50.264;11.918;2023-06-26T14:57:09;5.45;;;5.07;;
40945;SDS011;55635;50.264;11.918;2023-06-26T14:59:50;5.35;;;4.95;;
40945;SDS011;55635;50.264;11.918;2023-06-26T15:02:31;5.57;;;5.18;;
40945;SDS011;55635;50.264;11.918;2023-06-26T15:05:14;5.47;;;5.07;;
40945;SDS011;55635;50.264;11.918;2023-06-26T15:07:54;6.38;;;5.78;;
40945;SDS011;55635;50.264;11.918;2023-06-26T15:10:35;6.10;;;5.60;;
40945;SDS011;55635;50.264;11.918;2023-06-26T15:13:16;6.20;;;5.43;;
40945;SDS011;55635;50.264;11.918;2023-06-26T15:15:57;6.18;;;5.68;;
40945;SDS011;55635;50.264;11.918;2023-06-26T15:18:38;6.18;;;5.20;;
40945;SDS011;55635;50.264;11.918;2023-06-26T15:21:20;5.80;;;5.40;;
40945;SDS011;55635;50.264;11.918;2023-06-26T15:24:02;5.60;;;5.18;;
40945;SDS011;55635;50.264;11.918;2023-06-26T15:26:43;7.32;;;5.63;;
40945;SDS011;55635;50.264;11.918;2023-06-26T15:29:24;6.90;;;5.78;;
40945;SDS011;55635;50.264;11.918;2023-06-26T15:32:05;6.22;;;5.65;;
40945;SDS011;55635;50.264;11.918;2023-06-26T15:34:47;7.10;;;5.60;;
40945;SDS011;55635;50.264;11.918;2023-06-26T15:37:28;6.00;;;5.22;;
40945;SDS011;55635;50.264;11.918;2023-06-26T15:40:09;6.20;;;5.65;;
40945;SDS011;55635;50.264;11.918;2023-06-26T15:42:52;6.07;;;5.57;;
40945;SDS011;55635;50.264;11.918;2023-06-26T15:45:32;5.85;;;5.35;;
40945;SDS011;55635;50.264;11.918;2023-06-26T15:48:14;6.57;;;6.05;;
40945;SDS011;55635;50.264;11.918;2023-06-26T15:50:55;9.18;;;6.78;;
40945;SDS011;55635;50.264;11.918;2023-06-26T15:53:36;6.25;;;5.75;;
40945;SDS011;55635;50.264;11.918;2023-06-26T15:56:21;7.43;;;6.72;;
40945;SDS011;55635;50.264;11.918;2023-06-26T15:59:02;6.90;;;6.30;;
40945;SDS011;55635;50.264;11.918;2023-06-26T16:01:43;8.88;;;6.15;;
40945;SDS011;55635;50.264;11.918;2023-06-26T16:04:25;6.45;;;5.95;;